createdAt,value
2018-02-23T00:00:43.052Z,0.50
2018-02-23T00:03:09.890Z,0.50
2018-02-23T00:05:36.840Z,0.50
2018-02-23T00:08:03.693Z,0.40
2018-02-23T00:10:30.529Z,0.40
2018-02-23T00:12:57.793Z,0.40
2018-02-23T00:15:25.028Z,0.40
2018-02-23T00:17:51.876Z,0.40
2018-02-23T00:20:18.736Z,0.40
2018-02-23T00:22:45.680Z,0.30
2018-02-23T00:25:12.627Z,0.30
2018-02-23T00:27:39.492Z,0.30
2018-02-23T00:30:06.338Z,0.30
2018-02-23T00:32:33.184Z,0.40
2018-02-23T00:35:00.055Z,0.40
2018-02-23T00:37:26.941Z,0.30
2018-02-23T00:39:53.859Z,0.40
2018-02-23T00:42:20.729Z,0.50
2018-02-23T00:44:47.588Z,0.40
2018-02-23T00:47:14.463Z,0.20
2018-02-23T00:49:41.385Z,0.20
2018-02-23T00:52:08.248Z,0.30
2018-02-23T00:54:35.121Z,0.30
2018-02-23T00:57:02.067Z,0.30
2018-02-23T00:59:28.935Z,0.30
2018-02-23T01:01:55.793Z,0.30
2018-02-23T01:04:22.732Z,0.40
2018-02-23T01:06:49.584Z,0.40
2018-02-23T01:09:16.459Z,0.20
2018-02-23T01:11:43.308Z,0.20
2018-02-23T01:14:10.144Z,0.20
2018-02-23T01:16:37.397Z,0.10
2018-02-23T01:19:04.724Z,0.10
2018-02-23T01:21:31.699Z,0.10
2018-02-23T01:23:58.509Z,0.10
2018-02-23T01:26:25.473Z,0.10
2018-02-23T01:28:52.312Z,0.10
2018-02-23T01:31:19.239Z,0.10
2018-02-23T01:33:46.159Z,0.10
2018-02-23T01:36:12.992Z,0.20
2018-02-23T01:38:39.960Z,0.20
2018-02-23T01:41:06.801Z,0.10
2018-02-23T01:43:33.691Z,0.20
2018-02-23T01:46:00.653Z,0.30
2018-02-23T01:48:27.491Z,0.10
2018-02-23T01:51:00.316Z,0.00
2018-02-23T01:53:27.244Z,0.00
2018-02-23T01:55:54.104Z,0.10
2018-02-23T01:58:20.960Z,0.10
2018-02-23T02:00:47.801Z,0.10
2018-02-23T02:03:14.676Z,0.00
2018-02-23T02:05:41.553Z,0.10
2018-02-23T02:08:08.493Z,0.20
2018-02-23T02:10:35.476Z,0.00
2018-02-23T02:13:02.421Z,0.00
2018-02-23T02:15:29.278Z,0.10
2018-02-23T02:17:56.114Z,0.00
2018-02-23T02:20:22.976Z,0.00
2018-02-23T02:22:49.816Z,0.00
2018-02-23T02:25:17.142Z,-0.10
2018-02-23T02:27:44.071Z,-0.10
2018-02-23T02:30:10.910Z,-0.10
2018-02-23T02:32:37.756Z,0.00
2018-02-23T02:35:04.624Z,-0.10
2018-02-23T02:37:31.468Z,-0.10
2018-02-23T02:39:58.762Z,-0.10
2018-02-23T02:42:25.633Z,-0.10
2018-02-23T02:44:52.483Z,-0.10
2018-02-23T02:47:19.454Z,-0.10
2018-02-23T02:49:46.330Z,-0.10
2018-02-23T02:52:13.156Z,-0.10
2018-02-23T02:54:40.197Z,-0.10
2018-02-23T02:57:07.470Z,-0.20
2018-02-23T02:59:34.344Z,-0.10
2018-02-23T03:02:01.235Z,-0.10
2018-02-23T03:04:28.085Z,-0.10
2018-02-23T03:06:54.996Z,-0.20
2018-02-23T03:09:21.859Z,-0.20
2018-02-23T03:11:48.711Z,-0.10
2018-02-23T03:14:15.552Z,-0.10
2018-02-23T03:16:42.412Z,-0.20
2018-02-23T03:19:09.256Z,-0.40
2018-02-23T03:21:36.488Z,-0.40
2018-02-23T03:24:03.352Z,-0.40
2018-02-23T03:26:30.260Z,-0.40
2018-02-23T03:28:57.120Z,-0.30
2018-02-23T03:31:23.978Z,-0.30
2018-02-23T03:33:50.824Z,-0.30
2018-02-23T03:36:17.805Z,-0.20
2018-02-23T03:38:44.650Z,-0.30
2018-02-23T03:41:11.505Z,-0.30
2018-02-23T03:43:38.460Z,-0.30
2018-02-23T03:46:05.428Z,-0.40
2018-02-23T03:48:32.284Z,-0.60
2018-02-23T03:50:59.245Z,-0.50
2018-02-23T03:53:26.092Z,-0.60
2018-02-23T03:55:52.952Z,-0.60
2018-02-23T03:58:19.816Z,-0.70
2018-02-23T04:00:46.688Z,-0.60
2018-02-23T04:03:13.638Z,-0.50
2018-02-23T04:05:40.481Z,-0.50
2018-02-23T04:08:07.439Z,-0.50
2018-02-23T04:10:34.312Z,-0.50
2018-02-23T04:13:01.168Z,-0.60
2018-02-23T04:15:28.014Z,-0.70
2018-02-23T04:17:54.872Z,-0.60
2018-02-23T04:20:21.732Z,-0.60
2018-02-23T04:22:48.792Z,-0.60
2018-02-23T04:25:15.777Z,-0.70
2018-02-23T04:27:42.607Z,-0.70
2018-02-23T04:30:09.468Z,-0.60
2018-02-23T04:32:36.329Z,-0.70
2018-02-23T04:35:03.192Z,-0.70
2018-02-23T04:37:30.038Z,-0.80
2018-02-23T04:39:56.895Z,-0.70
2018-02-23T04:42:23.736Z,-0.70
2018-02-23T04:44:50.584Z,-0.80
2018-02-23T04:47:17.828Z,-0.80
2018-02-23T04:49:44.739Z,-0.80
2018-02-23T04:52:11.779Z,-0.80
2018-02-23T04:54:38.658Z,-0.80
2018-02-23T04:57:05.503Z,-0.90
2018-02-23T04:59:32.460Z,-0.80
2018-02-23T05:01:59.422Z,-0.80
2018-02-23T05:04:26.385Z,-0.80
2018-02-23T05:06:53.245Z,-1.00
2018-02-23T05:09:20.103Z,-0.90
2018-02-23T05:11:47.000Z,-1.00
2018-02-23T05:14:13.928Z,-1.10
2018-02-23T05:16:40.873Z,-1.10
2018-02-23T05:19:07.708Z,-1.20
2018-02-23T05:21:34.638Z,-1.10
2018-02-23T05:24:01.493Z,-1.00
2018-02-23T05:26:28.412Z,-1.00
2018-02-23T05:28:55.284Z,-1.00
2018-02-23T05:31:22.243Z,-1.10
2018-02-23T05:33:49.184Z,-1.10
2018-02-23T05:36:16.042Z,-1.20
2018-02-23T05:38:42.887Z,-1.20
2018-02-23T05:41:09.753Z,-1.20
2018-02-23T05:43:36.617Z,-1.10
2018-02-23T05:46:03.460Z,-1.20
2018-02-23T05:48:30.327Z,-1.20
2018-02-23T05:50:57.187Z,-1.30
2018-02-23T05:53:24.035Z,-1.40
2018-02-23T05:55:50.923Z,-1.50
2018-02-23T05:58:17.955Z,-1.40
2018-02-23T06:00:44.819Z,-1.30
2018-02-23T06:03:11.674Z,-1.50
2018-02-23T06:05:38.535Z,-1.40
2018-02-23T06:08:05.381Z,-1.30
2018-02-23T06:10:32.225Z,-1.20
2018-02-23T06:12:59.091Z,-1.30
2018-02-23T06:15:25.956Z,-1.40
2018-02-23T06:17:52.912Z,-1.50
2018-02-23T06:20:19.776Z,-1.40
2018-02-23T06:22:46.736Z,-1.40
2018-02-23T06:25:13.693Z,-1.30
2018-02-23T06:27:40.534Z,-1.30
2018-02-23T06:30:07.686Z,-1.40
2018-02-23T06:32:35.017Z,-1.50
2018-02-23T06:35:01.936Z,-1.60
2018-02-23T06:37:28.801Z,-1.60
2018-02-23T06:39:55.657Z,-1.60
2018-02-23T06:42:22.619Z,-1.60
2018-02-23T06:44:49.508Z,-1.50
2018-02-23T06:47:17.682Z,-1.50
2018-02-23T06:49:44.504Z,-1.50
2018-02-23T06:52:11.356Z,-1.50
2018-02-23T06:54:38.228Z,-1.40
2018-02-23T06:57:05.111Z,-1.30
2018-02-23T06:59:32.035Z,-1.30
2018-02-23T07:01:59.002Z,-1.40
2018-02-23T07:04:25.851Z,-1.30
2018-02-23T07:06:52.803Z,-1.40
2018-02-23T07:09:19.675Z,-1.40
2018-02-23T07:11:46.520Z,-1.20
2018-02-23T07:14:13.484Z,-1.10
2018-02-23T07:16:40.348Z,-1.20
2018-02-23T07:19:07.212Z,-1.10
2018-02-23T07:21:34.159Z,-1.10
2018-02-23T07:24:01.015Z,-1.20
2018-02-23T07:26:27.868Z,-1.20
2018-02-23T07:28:54.750Z,-1.00
2018-02-23T07:31:21.685Z,-1.00
2018-02-23T07:33:48.584Z,-1.10
2018-02-23T07:36:15.635Z,-1.00
2018-02-23T07:38:42.569Z,-1.10
2018-02-23T07:41:09.428Z,-1.10
2018-02-23T07:43:36.268Z,-1.20
2018-02-23T07:46:03.141Z,-1.10
2018-02-23T07:48:30.048Z,-1.00
2018-02-23T07:50:56.892Z,-1.00
2018-02-23T07:53:23.769Z,-1.10
2018-02-23T07:55:51.082Z,-1.00
2018-02-23T07:58:17.950Z,-1.00
2018-02-23T08:00:44.888Z,-0.90
2018-02-23T08:03:11.842Z,-0.90
2018-02-23T08:05:38.704Z,-0.80
2018-02-23T08:08:05.560Z,-0.60
2018-02-23T08:10:32.442Z,-0.60
2018-02-23T08:12:59.396Z,-0.60
2018-02-23T08:15:26.379Z,-0.60
2018-02-23T08:17:53.307Z,-0.50
2018-02-23T08:20:20.265Z,-0.60
2018-02-23T08:22:47.212Z,-0.50
2018-02-23T08:25:14.061Z,-0.40
2018-02-23T08:27:40.920Z,-0.40
2018-02-23T08:30:07.792Z,-0.30
2018-02-23T08:32:34.771Z,-0.30
2018-02-23T08:35:01.634Z,-0.30
2018-02-23T08:37:28.492Z,-0.40
2018-02-23T08:39:55.337Z,-0.30
2018-02-23T08:42:22.278Z,-0.30
2018-02-23T08:44:49.272Z,-0.20
2018-02-23T08:47:16.196Z,-0.20
2018-02-23T08:49:43.163Z,-0.30
2018-02-23T08:52:10.039Z,-0.30
2018-02-23T08:54:36.892Z,-0.10
2018-02-23T08:57:03.749Z,-0.10
2018-02-23T08:59:30.689Z,0.00
2018-02-23T09:01:57.548Z,-0.20
2018-02-23T09:04:24.608Z,-0.10
2018-02-23T09:06:51.449Z,0.10
2018-02-23T09:09:18.308Z,0.20
2018-02-23T09:11:45.276Z,0.20
2018-02-23T09:14:12.140Z,0.10
2018-02-23T09:16:39.085Z,0.10
2018-02-23T09:19:06.009Z,0.30
2018-02-23T09:21:33.319Z,0.40
2018-02-23T09:24:00.516Z,0.40
2018-02-23T09:26:27.447Z,0.40
2018-02-23T09:28:54.390Z,0.30
2018-02-23T09:31:21.264Z,0.10
2018-02-23T09:34:00.192Z,0.20
2018-02-23T09:36:27.053Z,0.40
2018-02-23T09:38:53.908Z,0.30
2018-02-23T09:41:20.834Z,0.30
2018-02-23T09:43:48.265Z,0.10
2018-02-23T09:46:15.192Z,0.10
2018-02-23T09:48:42.463Z,0.10
2018-02-23T09:51:09.337Z,0.20
2018-02-23T09:53:36.180Z,0.40
2018-02-23T09:56:03.020Z,0.60
2018-02-23T09:58:29.909Z,0.70
2018-02-23T10:00:56.851Z,0.90
2018-02-23T10:03:23.752Z,1.00
2018-02-23T10:05:50.608Z,0.90
2018-02-23T10:08:17.552Z,1.00
2018-02-23T10:10:44.483Z,1.10
2018-02-23T10:13:11.695Z,0.90
2018-02-23T10:15:38.603Z,0.90
2018-02-23T10:18:05.491Z,0.90
2018-02-23T10:20:32.352Z,1.00
2018-02-23T10:22:59.200Z,1.00
2018-02-23T10:25:26.053Z,1.10
2018-02-23T10:27:52.900Z,0.90
2018-02-23T10:30:19.764Z,0.80
2018-02-23T10:32:46.678Z,0.90
2018-02-23T10:35:13.572Z,1.10
2018-02-23T10:37:40.439Z,1.20
2018-02-23T10:40:07.299Z,1.10
2018-02-23T10:42:34.168Z,1.00
2018-02-23T10:45:01.008Z,1.10
2018-02-23T10:47:27.988Z,1.10
2018-02-23T10:49:54.813Z,1.20
2018-02-23T10:52:21.744Z,1.40
2018-02-23T10:54:48.983Z,1.40
2018-02-23T10:57:15.921Z,1.40
2018-02-23T10:59:42.764Z,1.50
2018-02-23T11:02:09.615Z,1.70
2018-02-23T11:04:36.508Z,1.60
2018-02-23T11:07:03.437Z,1.60
2018-02-23T11:09:30.392Z,1.60
2018-02-23T11:11:57.243Z,1.60
2018-02-23T11:14:24.119Z,1.60
2018-02-23T11:16:51.069Z,1.70
2018-02-23T11:19:17.948Z,1.70
2018-02-23T11:21:44.817Z,2.00
2018-02-23T11:24:11.699Z,2.10
2018-02-23T11:26:39.667Z,2.20
2018-02-23T11:29:06.504Z,2.10
2018-02-23T11:31:33.388Z,2.10
2018-02-23T11:34:00.292Z,2.10
2018-02-23T11:36:27.269Z,2.20
2018-02-23T11:38:54.508Z,2.40
2018-02-23T11:41:21.748Z,2.30
2018-02-23T11:43:49.059Z,2.20
2018-02-23T11:46:15.975Z,2.20
2018-02-23T11:48:43.276Z,2.10
2018-02-23T11:51:10.125Z,2.10
2018-02-23T11:53:37.104Z,2.10
2018-02-23T11:56:04.057Z,2.10
2018-02-23T11:58:31.000Z,1.80
2018-02-23T12:00:57.974Z,1.80
2018-02-23T12:03:24.832Z,2.10
2018-02-23T12:05:51.672Z,2.10
2018-02-23T12:08:18.564Z,2.30
2018-02-23T12:10:45.397Z,2.40
2018-02-23T12:13:12.360Z,2.30
2018-02-23T12:15:39.302Z,2.20
2018-02-23T12:18:06.566Z,2.50
2018-02-23T12:20:33.798Z,2.60
2018-02-23T12:23:00.656Z,2.50
2018-02-23T12:25:27.526Z,2.70
2018-02-23T12:27:54.770Z,2.60
2018-02-23T12:30:21.683Z,2.60
2018-02-23T12:32:48.644Z,2.60
2018-02-23T12:35:15.611Z,2.70
2018-02-23T12:37:42.452Z,2.60
2018-02-23T12:40:09.341Z,2.60
2018-02-23T12:42:36.199Z,2.80
2018-02-23T12:45:03.069Z,2.80
2018-02-23T12:47:29.932Z,2.90
2018-02-23T12:49:56.859Z,3.00
2018-02-23T12:52:23.796Z,2.90
2018-02-23T12:54:50.652Z,2.90
2018-02-23T12:57:17.521Z,2.90
2018-02-23T12:59:44.480Z,2.80
2018-02-23T13:02:11.342Z,2.60
2018-02-23T13:04:38.379Z,2.70
2018-02-23T13:07:05.692Z,2.80
2018-02-23T13:09:32.640Z,2.80
2018-02-23T13:11:59.499Z,2.60
2018-02-23T13:14:26.429Z,2.60
2018-02-23T13:16:53.246Z,2.90
2018-02-23T13:19:20.564Z,3.10
2018-02-23T13:21:47.422Z,3.10
2018-02-23T13:24:14.376Z,3.10
2018-02-23T13:26:41.273Z,3.00
2018-02-23T13:29:08.104Z,2.90
2018-02-23T13:31:35.039Z,2.90
2018-02-23T13:34:01.885Z,2.90
2018-02-23T13:36:28.748Z,3.00
2018-02-23T13:38:55.652Z,3.10
2018-02-23T13:41:23.393Z,3.10
2018-02-23T13:43:50.361Z,3.10
2018-02-23T13:46:17.241Z,3.00
2018-02-23T13:48:44.178Z,3.00
2018-02-23T13:51:11.147Z,2.90
2018-02-23T13:53:38.004Z,2.80
2018-02-23T13:56:04.866Z,2.80
2018-02-23T13:58:31.736Z,3.10
2018-02-23T14:00:58.649Z,3.30
2018-02-23T14:03:25.497Z,3.50
2018-02-23T14:05:52.484Z,3.50
2018-02-23T14:08:19.621Z,3.50
2018-02-23T14:10:46.572Z,3.40
2018-02-23T14:13:13.442Z,3.40
2018-02-23T14:15:40.302Z,3.40
2018-02-23T14:18:07.173Z,3.40
2018-02-23T14:20:34.119Z,3.40
2018-02-23T14:23:01.005Z,3.60
2018-02-23T14:25:27.928Z,3.90
2018-02-23T14:27:54.792Z,3.90
2018-02-23T14:30:21.660Z,3.80
2018-02-23T14:32:48.599Z,3.70
2018-02-23T14:35:15.485Z,3.50
2018-02-23T14:37:42.524Z,3.40
2018-02-23T14:40:09.396Z,3.50
2018-02-23T14:42:36.278Z,3.60
2018-02-23T14:45:03.118Z,3.40
2018-02-23T14:47:29.976Z,3.30
2018-02-23T14:52:55.721Z,3.60
2018-02-23T14:55:22.610Z,3.50
2018-02-23T14:57:49.466Z,3.50
2018-02-23T15:00:16.328Z,3.60
2018-02-23T15:02:43.271Z,3.80
2018-02-23T15:05:10.111Z,3.90
2018-02-23T15:07:36.964Z,3.80
2018-02-23T15:10:03.924Z,3.70
2018-02-23T15:12:30.795Z,3.60
2018-02-23T15:14:57.637Z,3.40
2018-02-23T15:17:24.497Z,3.40
2018-02-23T15:19:51.409Z,3.40
2018-02-23T15:22:18.313Z,3.30
2018-02-23T15:24:45.163Z,3.20
2018-02-23T15:27:12.124Z,3.10
2018-02-23T15:29:38.980Z,3.10
2018-02-23T15:32:17.870Z,3.10
2018-02-23T15:34:44.828Z,3.20
2018-02-23T15:37:11.825Z,3.20
2018-02-23T15:39:39.055Z,3.00
2018-02-23T15:42:05.937Z,3.00
2018-02-23T15:44:32.781Z,3.10
2018-02-23T15:46:59.704Z,3.10
2018-02-23T15:49:26.635Z,3.10
2018-02-23T15:51:53.525Z,3.10
2018-02-23T15:54:20.372Z,3.00
2018-02-23T15:56:47.320Z,3.10
2018-02-23T15:59:14.174Z,3.20
2018-02-23T16:01:41.029Z,3.30
2018-02-23T16:04:07.900Z,3.20
2018-02-23T16:06:34.853Z,3.10
2018-02-23T16:09:01.813Z,3.20
2018-02-23T16:11:28.650Z,3.30
2018-02-23T16:13:55.516Z,3.30
2018-02-23T16:16:22.400Z,3.30
2018-02-23T16:18:49.291Z,3.30
2018-02-23T16:21:16.568Z,3.10
2018-02-23T16:23:43.887Z,3.10
2018-02-23T16:26:10.740Z,3.10
2018-02-23T16:28:37.580Z,3.00
2018-02-23T16:31:04.425Z,2.90
2018-02-23T16:33:31.284Z,3.00
2018-02-23T16:35:58.258Z,3.10
2018-02-23T16:38:25.479Z,2.90
2018-02-23T16:40:52.336Z,2.90
2018-02-23T16:43:19.653Z,3.00
2018-02-23T16:45:46.529Z,3.00
2018-02-23T16:48:13.455Z,3.10
2018-02-23T16:50:40.307Z,2.90
2018-02-23T16:53:07.377Z,2.80
2018-02-23T16:55:34.281Z,2.80
2018-02-23T16:58:01.155Z,2.70
2018-02-23T17:00:27.988Z,2.60
2018-02-23T17:02:54.913Z,2.40
2018-02-23T17:05:21.863Z,2.50
2018-02-23T17:07:48.801Z,2.50
2018-02-23T17:10:15.683Z,2.40
2018-02-23T17:12:42.552Z,2.40
2018-02-23T17:15:09.424Z,2.40
2018-02-23T17:17:36.279Z,2.40
2018-02-23T17:20:03.156Z,2.40
2018-02-23T17:22:30.068Z,2.20
2018-02-23T17:24:56.932Z,2.10
2018-02-23T17:27:23.792Z,2.20
2018-02-23T17:29:50.689Z,2.20
2018-02-23T17:32:17.647Z,2.20
2018-02-23T17:34:44.895Z,2.00
2018-02-23T17:37:11.737Z,2.00
2018-02-23T17:39:38.630Z,2.00
2018-02-23T17:42:05.480Z,2.00
2018-02-23T17:44:32.417Z,2.00
2018-02-23T17:46:59.294Z,1.90
2018-02-23T17:49:26.246Z,1.80
2018-02-23T17:51:53.182Z,1.80
2018-02-23T17:54:20.132Z,1.90
2018-02-23T17:56:47.011Z,2.00
2018-02-23T17:59:13.961Z,1.80
2018-02-23T18:01:40.927Z,1.80
2018-02-23T18:04:07.772Z,1.80
2018-02-23T18:06:34.722Z,1.80
2018-02-23T18:09:01.742Z,1.90
2018-02-23T18:11:29.000Z,2.00
2018-02-23T18:13:55.868Z,2.00
2018-02-23T18:16:23.156Z,1.70
2018-02-23T18:18:50.036Z,1.70
2018-02-23T18:21:16.906Z,1.60
2018-02-23T18:23:43.937Z,1.70
2018-02-23T18:26:10.797Z,1.60
2018-02-23T18:28:37.655Z,1.50
2018-02-23T18:31:04.515Z,1.30
2018-02-23T18:33:31.363Z,1.30
2018-02-23T18:35:58.340Z,1.40
2018-02-23T18:38:25.288Z,1.40
2018-02-23T18:40:52.197Z,1.40
2018-02-23T18:43:19.105Z,1.60
2018-02-23T18:45:45.945Z,1.40
2018-02-23T18:48:12.924Z,1.30
2018-02-23T18:50:39.788Z,1.20
2018-02-23T18:53:06.624Z,1.10
2018-02-23T18:55:33.497Z,1.00
2018-02-23T18:58:00.448Z,1.00
2018-02-23T19:00:27.342Z,1.10
2018-02-23T19:02:54.383Z,1.10
2018-02-23T19:05:21.228Z,1.00
2018-02-23T19:07:48.177Z,1.10
2018-02-23T19:10:15.118Z,1.00
2018-02-23T19:12:42.004Z,1.10
2018-02-23T19:15:09.009Z,1.10
2018-02-23T19:17:35.833Z,1.00
2018-02-23T19:20:02.701Z,1.00
2018-02-23T19:22:29.632Z,0.90
2018-02-23T19:24:56.500Z,0.90
2018-02-23T19:27:23.454Z,0.90
2018-02-23T19:29:50.514Z,0.90
2018-02-23T19:32:17.396Z,0.90
2018-02-23T19:34:44.252Z,0.80
2018-02-23T19:37:11.103Z,0.80
2018-02-23T19:39:38.046Z,0.70
2018-02-23T19:42:04.987Z,0.60
2018-02-23T19:44:31.948Z,0.60
2018-02-23T19:46:58.792Z,0.70
2018-02-23T19:49:25.671Z,0.80
2018-02-23T19:51:52.620Z,0.80
2018-02-23T19:54:19.952Z,0.80
2018-02-23T19:56:47.269Z,0.80
2018-02-23T19:59:14.222Z,0.80
2018-02-23T20:01:41.084Z,0.70
2018-02-23T20:04:07.963Z,0.80
2018-02-23T20:06:34.799Z,0.70
2018-02-23T20:09:01.655Z,0.70
2018-02-23T20:11:28.603Z,0.70
2018-02-23T20:13:55.502Z,0.80
2018-02-23T20:16:22.342Z,0.60
2018-02-23T20:18:49.185Z,0.50
2018-02-23T20:21:16.071Z,0.60
2018-02-23T20:23:42.946Z,0.60
2018-02-23T20:26:09.861Z,0.40
2018-02-23T20:28:36.908Z,0.40
2018-02-23T20:31:03.869Z,0.50
2018-02-23T20:33:30.727Z,0.40
2018-02-23T20:35:57.685Z,0.40
2018-02-23T20:38:24.531Z,0.30
2018-02-23T20:40:51.368Z,0.30
2018-02-23T20:43:18.629Z,0.20
2018-02-23T20:45:45.948Z,0.20
2018-02-23T20:48:12.804Z,0.20
2018-02-23T20:50:39.843Z,0.20
2018-02-23T20:53:06.811Z,0.20
2018-02-23T20:55:33.759Z,0.20
2018-02-23T20:58:00.627Z,0.20
2018-02-23T21:00:27.497Z,0.10
2018-02-23T21:02:54.355Z,0.10
2018-02-23T21:05:21.223Z,0.20
2018-02-23T21:07:48.174Z,0.20
2018-02-23T21:10:15.102Z,0.30
2018-02-23T21:12:41.925Z,0.10
2018-02-23T21:15:08.928Z,0.10
2018-02-23T21:17:35.813Z,-0.10
2018-02-23T21:20:02.798Z,0.00
2018-02-23T21:22:29.712Z,0.00
2018-02-23T21:24:56.557Z,0.00
2018-02-23T21:27:23.449Z,0.00
2018-02-23T21:29:50.387Z,-0.10
2018-02-23T21:32:17.348Z,-0.20
2018-02-23T21:34:44.352Z,-0.20
2018-02-23T21:37:11.282Z,-0.10
2018-02-23T21:39:38.154Z,-0.10
2018-02-23T21:42:05.191Z,-0.10
2018-02-23T21:44:45.821Z,-0.30
2018-02-23T21:47:12.724Z,-0.30
2018-02-23T21:49:39.602Z,-0.30
2018-02-23T21:52:06.538Z,-0.10
2018-02-23T21:54:33.502Z,-0.10
2018-02-23T21:57:00.352Z,-0.10
2018-02-23T21:59:27.218Z,-0.30
2018-02-23T22:01:54.173Z,-0.30
2018-02-23T22:04:21.052Z,-0.20
2018-02-23T22:06:47.956Z,-0.30
2018-02-23T22:09:15.203Z,-0.40
2018-02-23T22:11:42.112Z,-0.40
2018-02-23T22:14:09.070Z,-0.40
2018-02-23T22:16:35.919Z,-0.40
2018-02-23T22:19:02.802Z,-0.40
2018-02-23T22:21:29.746Z,-0.50
2018-02-23T22:23:56.699Z,-0.50
2018-02-23T22:26:23.548Z,-0.50
2018-02-23T22:28:50.515Z,-0.50
2018-02-23T22:31:17.379Z,-0.50
2018-02-23T22:33:44.225Z,-0.50
2018-02-23T22:36:11.097Z,-0.60
2018-02-23T22:38:37.935Z,-0.60
2018-02-23T22:41:04.803Z,-0.60
2018-02-23T22:43:31.755Z,-0.70
2018-02-23T22:45:58.614Z,-0.60
2018-02-23T22:48:25.496Z,-0.60
2018-02-23T22:50:52.571Z,-0.60
2018-02-23T22:53:19.404Z,-0.70
2018-02-23T22:55:46.470Z,-0.70
2018-02-23T22:58:13.321Z,-0.70
2018-02-23T23:00:40.269Z,-0.70
2018-02-23T23:03:07.128Z,-0.70
2018-02-23T23:05:34.080Z,-0.70
2018-02-23T23:08:01.027Z,-0.70
2018-02-23T23:10:27.918Z,-0.70
2018-02-23T23:12:54.767Z,-0.70
2018-02-23T23:15:21.631Z,-0.60
2018-02-23T23:17:48.582Z,-0.60
2018-02-23T23:20:15.459Z,-0.50
2018-02-23T23:22:42.402Z,-0.60
2018-02-23T23:25:09.288Z,-0.50
2018-02-23T23:27:36.166Z,-0.70
2018-02-23T23:30:03.413Z,-0.80
2018-02-23T23:32:30.344Z,-0.80
2018-02-23T23:34:57.198Z,-0.90
2018-02-23T23:37:24.148Z,-0.90
2018-02-23T23:39:50.995Z,-0.90
2018-02-23T23:42:17.908Z,-0.90
2018-02-23T23:44:44.825Z,-1.00
2018-02-23T23:47:11.689Z,-1.00
2018-02-23T23:49:38.555Z,-0.90
2018-02-23T23:52:05.395Z,-0.90
2018-02-23T23:54:32.258Z,-0.80
2018-02-23T23:56:59.116Z,-0.90
2018-02-23T23:59:26.068Z,-0.90
